Millenium Air

Millenium Air Since 1998



 METAR AND TAF INFORMATION

Deprecated: The each() function is deprecated. This message will be suppressed on further calls in /var/www/virtual/milleniumair.it/htdocs/vam/helpers/get_metar.php on line 20
METAR FOR LIBP
ADDS - METARS form results

(0146 UTC 23 September 2021)
Data provider http://aviationweather.gov/metar/data/
 
METAR text: LIBP 230120Z AUTO 23005KT 9999 BKN043/// OVC059/// 14/09 Q1023
Conditions at: LIBP (PESCARA , IT) observed 0120 UTC 23 September 2021
Temperature: 14.0°C (57°F)
Dewpoint: 9.0°C (48°F) [RH = 72%]
Pressure (altimeter): 30.21 inches Hg (1023.0 mb)
Winds: from the SW (230 degrees) at 6 MPH (5 knots; 2.6 m/s)
Visibility: 6 or more miles (10+ km)
Ceiling: 4300 feet AGL
Clouds: broken clouds at 4300 feet AGL
overcast cloud deck at 5900 feet AGL
Weather: no significant weather observed at this time

METAR text: LIBP 230050Z AUTO 25005KT 9999 SCT050/// OVC061/// 14/09 Q1023
Conditions at: LIBP (PESCARA , IT) observed 0050 UTC 23 September 2021
Temperature: 14.0°C (57°F)
Dewpoint: 9.0°C (48°F) [RH = 72%]
Pressure (altimeter): 30.21 inches Hg (1023.0 mb)
Winds: from the WSW (250 degrees) at 6 MPH (5 knots; 2.6 m/s)
Visibility: 6 or more miles (10+ km)
Ceiling: 6100 feet AGL
Clouds: scattered clouds at 5000 feet AGL
overcast cloud deck at 6100 feet AGL
Weather: no significant weather observed at this time

Forecast for: LIBP (PESCARA , IT)
Text: TAF LIBP 222300Z 2300/2324 VRB06KT CAVOK
Forecast period: 0000 UTC 23 September 2021 to 0000 UTC 24 September 2021
Forecast type: FROM: standard forecast or significant change
Winds: variable direction winds at 7 MPH (6 knots; 3.1 m/s)
Visibility: 6 or more miles (10+ km)
Ceiling: unknown
Clouds: missing
Weather: NSW  (no significant weather)

 AIRPORT MAP

 RUNWAY INFORMATION
Runway 04 Runway length 7933 ft Runway width 148 ft
Runway elevation 46 ft Runway displaced threshold 344 ft Runway heading 38
Runway 22 Runway length 7933 ft Runway width 148 ft
Runway elevation 27 ft Runway displaced threshold 617 ft Runway heading 218

 AIRPORT FREQUENCIES
Type APP Name APP Frequency 120.05 MHZ
Type TWR Name TWR Frequency 118.45 MHZ

 AIRPORT NEAR NAVIGATION AIDS
Type VOR-DME Name Pescara Frequency 115900 KHZ